Time;durP1;ratioP1;P1;durP2;ratioP2;P2;SDS_P1;SDS_P2;PMS_P1;PMS_P2;Temp;Humidity;BMP_temperature;BMP_pressure;BME280_temperature;BME280_humidity;BME280_pressure;Samples;Min_cycle;Max_cycle;Signal;HPM_P1;HPM_P2
2023/06/22 00:01:18;;;;;;;;;;;;;;;27.32;50.45;99870.81;5092445;28;19943;-41
2023/06/22 00:03:43;;;;;;;;;;;;;;;27.33;49.77;99869.72;5091905;28;19947;-42
2023/06/22 00:06:09;;;;;;;;;;;;;;;27.38;49.89;99861.41;5083485;28;19931;-42
2023/06/22 00:08:34;;;;;;;;;;;;;;;27.41;50.29;99870.88;5071903;28;19928;-42
2023/06/22 00:10:59;;;;;;;;;;;;;;;27.44;49.91;99878.47;5075102;28;19919;-42
2023/06/22 00:13:24;;;;;;;;;;;;;;;27.44;49.44;99881.19;5091944;28;19916;-42
2023/06/22 00:15:50;;;;;;;;;;;;;;;27.40;49.65;99878.28;5091856;28;19969;-42
2023/06/22 00:18:15;;;;;;;;;;;;;;;27.37;49.77;99878.09;5091972;28;20295;-42
2023/06/22 00:20:41;;;;;;;;;;;;;;;27.27;50.16;99877.22;5092216;28;19916;-42
2023/06/22 00:23:09;;;;;;;;;;;;;;;27.23;50.64;99881.69;5091811;28;20502;-42
2023/06/22 00:25:35;;;;;;;;;;;;;;;27.18;50.59;99887.25;5091603;28;20423;-42
2023/06/22 00:28:00;;;;;;;;;;;;;;;27.13;50.68;99886.56;5091387;28;19999;-42
2023/06/22 00:30:26;;;;;;;;;;;;;;;27.14;50.96;99888.19;5091564;28;19916;-42
2023/06/22 00:32:51;;;;;;;;;;;;;;;27.09;51.41;99894.56;5090470;28;19924;-42
2023/06/22 00:35:16;;;;;;;;;;;;;;;27.01;51.39;99882.47;5091840;28;20028;-42
2023/06/22 00:37:42;;;;;;;;;;;;;;;26.92;51.70;99876.13;5091809;28;20271;-42
2023/06/22 00:40:08;;;;;;;;;;;;;;;26.98;51.89;99893.22;5091875;28;19912;-41
2023/06/22 00:42:34;;;;;;;;;;;;;;;26.91;52.28;99894.44;5091386;28;19912;-40
2023/06/22 00:44:59;;;;;;;;;;;;;;;26.80;52.65;99904.00;5091258;28;19919;-41
2023/06/22 00:47:24;;;;;;;;;;;;;;;26.62;52.95;99904.97;5091379;28;20523;-41
2023/06/22 00:49:52;;;;;;;;;;;;;;;26.48;53.53;99904.94;5091093;28;20512;-41
2023/06/22 00:52:20;;;;;;;;;;;;;;;26.48;53.32;99903.03;5090980;28;19969;-41
2023/06/22 00:54:48;;;;;;;;;;;;;;;26.46;53.58;99901.72;5091154;28;20353;-41
2023/06/22 00:57:15;;;;;;;;;;;;;;;26.39;53.60;99896.69;5091375;28;19912;-41
2023/06/22 00:59:42;;;;;;;;;;;;;;;26.34;53.30;99896.78;5090660;28;19923;-41
2023/06/22 01:02:07;;;;;;;;;;;;;;;26.31;53.76;99894.66;5091152;28;20500;-41
2023/06/22 01:04:37;;;;;;;;;;;;;;;26.21;53.99;99887.50;5091126;28;19912;-41
2023/06/22 01:07:08;;;;;;;;;;;;;;;26.14;54.21;99898.00;5090800;28;20040;-41
2023/06/22 01:09:39;;;;;;;;;;;;;;;26.08;54.48;99897.31;5090530;28;19936;-41
2023/06/22 01:12:07;;;;;;;;;;;;;;;26.02;54.60;99898.50;5090756;28;19962;-41
2023/06/22 01:14:35;;;;;;;;;;;;;;;26.01;54.71;99898.81;5090823;28;19954;-41
2023/06/22 01:17:01;;;;;;;;;;;;;;;26.02;54.50;99903.16;5091095;28;20562;-41
2023/06/22 01:19:48;;;;;;;;;;;;;;;26.05;54.39;99902.56;5090443;28;19919;-42
2023/06/22 01:22:16;;;;;;;;;;;;;;;26.10;54.14;99911.47;5090598;28;20489;-41
2023/06/22 01:24:52;;;;;;;;;;;;;;;26.08;54.17;99901.94;5090289;28;20335;-41
2023/06/22 01:27:28;;;;;;;;;;;;;;;26.05;54.27;99899.84;5090303;28;19912;-41
2023/06/22 01:30:00;;;;;;;;;;;;;;;26.04;54.28;99896.28;5090214;28;20050;-41
2023/06/22 01:32:30;;;;;;;;;;;;;;;26.05;54.31;99895.19;5090153;28;19924;-41
2023/06/22 01:34:56;;;;;;;;;;;;;;;25.98;54.65;99902.97;5090404;28;19973;-41
2023/06/22 01:37:22;;;;;;;;;;;;;;;25.92;54.85;99894.06;5090509;28;19919;-41
2023/06/22 01:39:47;;;;;;;;;;;;;;;25.81;55.26;99900.00;5090468;28;20348;-41
2023/06/22 01:42:13;;;;;;;;;;;;;;;25.78;55.54;99895.13;5090356;28;19928;-42
2023/06/22 01:44:38;;;;;;;;;;;;;;;25.79;55.34;99883.13;5090019;28;19911;-41
2023/06/22 01:47:04;;;;;;;;;;;;;;;25.64;55.47;99874.13;5090234;28;20360;-41
2023/06/22 01:49:30;;;;;;;;;;;;;;;25.78;54.61;99874.16;5090033;28;19912;-41
2023/06/22 01:51:55;;;;;;;;;;;;;;;24.43;59.93;99884.69;5089855;28;20342;-41
2023/06/22 01:54:20;;;;;;;;;;;;;;;24.20;59.89;99879.00;5089941;28;19916;-41
2023/06/22 01:56:46;;;;;;;;;;;;;;;23.84;61.11;99891.38;5090041;28;19918;-41
2023/06/22 01:59:23;;;;;;;;;;;;;;;23.48;63.29;99889.00;5090180;28;19923;-41
2023/06/22 02:01:53;;;;;;;;;;;;;;;23.19;64.32;99881.66;5090392;28;19916;-41
2023/06/22 02:04:25;;;;;;;;;;;;;;;23.22;64.68;99891.91;5090099;28;19912;-41
2023/06/22 02:06:55;;;;;;;;;;;;;;;23.30;64.80;99894.00;5089863;28;20004;-41
2023/06/22 02:09:22;;;;;;;;;;;;;;;23.19;65.34;99890.59;5089962;28;19969;-42
2023/06/22 02:11:48;;;;;;;;;;;;;;;23.36;64.59;99889.34;5089950;28;20287;-42
2023/06/22 02:14:14;;;;;;;;;;;;;;;23.48;63.81;99889.00;5089968;28;20003;-42
2023/06/22 02:16:41;;;;;;;;;;;;;;;23.25;64.62;99885.94;5090346;28;19912;-41
2023/06/22 02:19:06;;;;;;;;;;;;;;;23.54;63.48;99890.56;5089917;28;19951;-42
2023/06/22 02:21:32;;;;;;;;;;;;;;;23.40;64.12;99893.16;5089936;28;20003;-42
2023/06/22 02:23:58;;;;;;;;;;;;;;;23.32;64.63;99894.56;5089629;28;19912;-41
2023/06/22 02:26:23;;;;;;;;;;;;;;;23.66;63.79;99890.97;5089584;28;20030;-42
2023/06/22 02:28:49;;;;;;;;;;;;;;;24.37;61.22;99896.75;5090003;28;19919;-42
2023/06/22 02:31:14;;;;;;;;;;;;;;;24.77;59.47;99900.06;5088730;28;19920;-42
2023/06/22 02:33:40;;;;;;;;;;;;;;;24.92;58.09;99894.38;5070544;28;19947;-42
2023/06/22 02:36:08;;;;;;;;;;;;;;;25.02;57.60;99890.69;5069691;28;20007;-41
2023/06/22 02:38:34;;;;;;;;;;;;;;;25.13;57.07;99894.03;5069552;28;19912;-42
2023/06/22 02:41:00;;;;;;;;;;;;;;;25.18;56.67;99904.84;5069938;28;19965;-42
2023/06/22 02:43:25;;;;;;;;;;;;;;;25.18;57.11;99910.31;5087573;28;20579;-42
2023/06/22 02:45:50;;;;;;;;;;;;;;;25.20;56.70;99905.38;5089685;28;19923;-42
2023/06/22 02:48:16;;;;;;;;;;;;;;;25.18;56.91;99911.09;5085536;28;20013;-41
2023/06/22 02:50:41;;;;;;;;;;;;;;;25.17;56.60;99912.22;5087442;28;20058;-42
2023/06/22 02:53:06;;;;;;;;;;;;;;;25.06;56.37;99915.41;5086840;28;19912;-42
2023/06/22 02:55:31;;;;;;;;;;;;;;;25.07;56.49;99915.09;5090594;28;19920;-42
2023/06/22 02:57:57;;;;;;;;;;;;;;;25.08;56.83;99905.84;5092696;28;19912;-42
2023/06/22 03:00:23;;;;;;;;;;;;;;;25.12;56.91;99911.50;5090822;28;19916;-41
2023/06/22 03:02:49;;;;;;;;;;;;;;;25.21;56.94;99915.16;5086942;28;19916;-42
2023/06/22 03:05:18;;;;;;;;;;;;;;;25.20;56.65;99910.81;5072663;28;20014;-42
2023/06/22 03:07:46;;;;;;;;;;;;;;;25.25;56.41;99921.66;5089076;28;19912;-42
2023/06/22 03:10:12;;;;;;;;;;;;;;;25.18;56.73;99922.00;5092675;28;19920;-42
2023/06/22 03:12:37;;;;;;;;;;;;;;;24.83;56.49;99925.25;5092401;28;20374;-42
2023/06/22 03:15:04;;;;;;;;;;;;;;;24.65;56.45;99926.88;5092670;28;19916;-42
2023/06/22 03:17:29;;;;;;;;;;;;;;;24.75;55.71;99932.16;5092333;28;19934;-41
2023/06/22 03:19:54;;;;;;;;;;;;;;;24.84;55.35;99919.53;5092689;28;20355;-41
2023/06/22 03:22:20;;;;;;;;;;;;;;;24.93;55.21;99927.84;5092871;28;19943;-42
2023/06/22 03:24:45;;;;;;;;;;;;;;;25.01;54.85;99927.16;5092567;28;20365;-42
2023/06/22 03:27:10;;;;;;;;;;;;;;;24.90;54.88;99931.97;5092382;28;19927;-41
2023/06/22 03:29:35;;;;;;;;;;;;;;;25.05;54.61;99941.81;5092479;28;19916;-42
2023/06/22 03:32:01;;;;;;;;;;;;;;;24.84;54.35;99943.22;5092584;28;20598;-41
2023/06/22 03:34:26;;;;;;;;;;;;;;;24.56;56.57;99941.13;5092485;28;19932;-41
2023/06/22 03:36:52;;;;;;;;;;;;;;;24.35;59.34;99940.56;5091231;28;19925;-42
2023/06/22 03:39:17;;;;;;;;;;;;;;;24.48;57.67;99951.81;5092731;28;19919;-41
2023/06/22 03:41:42;;;;;;;;;;;;;;;24.25;57.91;99945.28;5092436;28;20053;-42
2023/06/22 03:44:12;;;;;;;;;;;;;;;24.80;56.61;99951.16;5092092;28;19923;-42
2023/06/22 03:46:37;;;;;;;;;;;;;;;25.02;54.64;99944.31;5092862;28;19999;-42
2023/06/22 03:49:03;;;;;;;;;;;;;;;25.36;53.89;99944.91;5092259;28;20368;-42
2023/06/22 03:51:28;;;;;;;;;;;;;;;25.29;53.80;99952.63;5092313;28;20008;-40
2023/06/22 03:53:53;;;;;;;;;;;;;;;25.89;52.14;99960.09;5092250;28;19912;-43
2023/06/22 03:56:20;;;;;;;;;;;;;;;26.41;50.68;99954.47;5091743;28;19955;-42
2023/06/22 03:58:45;;;;;;;;;;;;;;;26.78;49.80;99941.72;5091824;28;19915;-43
2023/06/22 04:01:11;;;;;;;;;;;;;;;26.85;49.48;99938.56;5091639;28;20303;-41
2023/06/22 04:03:37;;;;;;;;;;;;;;;27.32;48.46;99930.91;5091460;28;20382;-41
2023/06/22 04:06:02;;;;;;;;;;;;;;;27.71;47.35;99940.34;5091603;28;20391;-42
2023/06/22 04:08:27;;;;;;;;;;;;;;;27.89;46.62;99938.50;5090054;28;20394;-42
2023/06/22 04:10:52;;;;;;;;;;;;;;;28.14;45.95;99939.75;5091319;28;19948;-42
2023/06/22 04:13:18;;;;;;;;;;;;;;;28.22;45.95;99944.44;5091225;28;20017;-42
2023/06/22 04:15:43;;;;;;;;;;;;;;;28.71;44.84;99941.69;5091582;28;20412;-42
2023/06/22 04:18:08;;;;;;;;;;;;;;;28.98;44.15;99948.00;5091876;28;19908;-42
2023/06/22 04:20:34;;;;;;;;;;;;;;;27.66;46.71;99948.66;5091519;28;19912;-42
2023/06/22 04:22:59;;;;;;;;;;;;;;;26.83;49.17;99954.44;5091184;28;19935;-42
2023/06/22 04:25:24;;;;;;;;;;;;;;;26.73;50.00;99958.19;5091208;28;19912;-42
2023/06/22 04:27:50;;;;;;;;;;;;;;;26.82;49.77;99956.34;5090990;28;19935;-42
2023/06/22 04:30:16;;;;;;;;;;;;;;;26.91;49.56;99951.78;5091113;28;19920;-42
2023/06/22 04:32:41;;;;;;;;;;;;;;;27.21;49.28;99948.66;5090914;28;19959;-42
2023/06/22 04:35:07;;;;;;;;;;;;;;;27.34;48.59;99956.03;5091782;28;19946;-42
2023/06/22 04:37:32;;;;;;;;;;;;;;;27.49;48.28;99949.34;5091422;28;20390;-42
2023/06/22 04:39:58;;;;;;;;;;;;;;;27.84;47.70;99957.78;5090234;28;20014;-41
2023/06/22 04:42:24;;;;;;;;;;;;;;;27.93;47.64;99952.38;5090990;28;19916;-42
2023/06/22 04:44:50;;;;;;;;;;;;;;;28.04;47.00;99953.69;5089250;28;19912;-42
2023/06/22 04:47:15;;;;;;;;;;;;;;;28.38;46.54;99955.75;5089268;28;19919;-40
2023/06/22 04:49:43;;;;;;;;;;;;;;;28.37;46.30;99959.63;5088799;28;19916;-41
2023/06/22 04:52:09;;;;;;;;;;;;;;;28.59;45.44;99957.94;5087650;28;19968;-41
2023/06/22 04:54:36;;;;;;;;;;;;;;;28.91;44.24;99961.38;5088037;28;19927;-42
2023/06/22 04:57:02;;;;;;;;;;;;;;;29.04;44.67;99958.47;5088680;28;19920;-41
2023/06/22 04:59:29;;;;;;;;;;;;;;;29.04;44.28;99946.72;5088529;28;19912;-41
2023/06/22 05:01:58;;;;;;;;;;;;;;;29.16;43.77;99951.56;5088346;28;19912;-42
2023/06/22 05:04:24;;;;;;;;;;;;;;;29.26;43.54;99945.75;5087966;28;19919;-41
2023/06/22 05:06:52;;;;;;;;;;;;;;;29.45;43.39;99942.66;5088149;28;19912;-41
2023/06/22 05:09:18;;;;;;;;;;;;;;;29.68;42.92;99936.97;5084500;28;19977;-41
2023/06/22 05:11:44;;;;;;;;;;;;;;;29.52;43.49;99939.44;5082259;28;20350;-41
2023/06/22 05:14:09;;;;;;;;;;;;;;;29.64;42.87;99945.03;5070127;28;19919;-42
2023/06/22 05:16:35;;;;;;;;;;;;;;;29.66;43.15;99942.75;5081845;28;19912;-42
2023/06/22 05:19:02;;;;;;;;;;;;;;;30.09;42.68;99946.53;5086759;28;19916;-42
2023/06/22 05:21:28;;;;;;;;;;;;;;;30.13;42.25;99945.53;5088751;28;20075;-42
2023/06/22 05:23:54;;;;;;;;;;;;;;;30.43;41.51;99942.84;5087793;28;19916;-41
2023/06/22 05:26:20;;;;;;;;;;;;;;;30.51;41.22;99943.91;5088078;28;19919;-41
2023/06/22 05:28:46;;;;;;;;;;;;;;;30.51;41.24;99941.16;5087768;28;19912;-42
2023/06/22 05:31:13;;;;;;;;;;;;;;;30.58;41.33;99946.94;5087936;28;20319;-42
2023/06/22 05:33:38;;;;;;;;;;;;;;;30.76;41.10;99953.13;5087307;28;19973;-42
2023/06/22 05:36:04;;;;;;;;;;;;;;;31.10;40.50;99952.06;5087450;28;20284;-42
2023/06/22 05:38:29;;;;;;;;;;;;;;;31.45;39.82;99954.47;5087463;28;20079;-41
2023/06/22 05:40:54;;;;;;;;;;;;;;;31.64;39.68;99944.94;5087353;28;20414;-43
2023/06/22 05:43:20;;;;;;;;;;;;;;;31.55;39.63;99956.84;5087844;28;19918;-41
2023/06/22 05:45:45;;;;;;;;;;;;;;;31.57;39.76;99951.00;5088063;28;20018;-42
2023/06/22 05:48:11;;;;;;;;;;;;;;;31.76;40.03;99945.78;5088463;28;20388;-42
2023/06/22 05:50:36;;;;;;;;;;;;;;;32.12;39.37;99947.00;5088319;28;19919;-42
2023/06/22 05:53:02;;;;;;;;;;;;;;;31.96;39.07;99948.78;5088431;28;19912;-43
2023/06/22 05:55:27;;;;;;;;;;;;;;;32.24;38.96;99948.13;5088603;28;19916;-42
2023/06/22 05:57:52;;;;;;;;;;;;;;;32.64;38.40;99952.94;5088987;28;19912;-41
2023/06/22 06:00:18;;;;;;;;;;;;;;;33.08;36.97;99953.03;5088997;28;20237;-41
2023/06/22 06:02:43;;;;;;;;;;;;;;;32.87;36.78;99951.28;5088395;28;19912;-41
2023/06/22 06:05:10;;;;;;;;;;;;;;;32.98;36.36;99940.56;5088563;28;19954;-41
2023/06/22 06:07:35;;;;;;;;;;;;;;;33.09;36.07;99932.59;5088930;28;19918;-42
2023/06/22 06:10:01;;;;;;;;;;;;;;;33.78;35.70;99952.63;5088639;28;20010;-41
2023/06/22 06:12:26;;;;;;;;;;;;;;;33.71;35.09;99946.91;5088307;28;19916;-42
2023/06/22 06:14:53;;;;;;;;;;;;;;;33.62;34.70;99951.78;5088410;28;20022;-42
2023/06/22 06:17:18;;;;;;;;;;;;;;;33.52;35.03;99947.59;5088404;28;19912;-42
2023/06/22 06:19:43;;;;;;;;;;;;;;;33.79;34.87;99939.63;5087974;28;19999;-42
2023/06/22 06:22:09;;;;;;;;;;;;;;;33.76;35.16;99940.31;5087636;28;19935;-42
2023/06/22 06:24:34;;;;;;;;;;;;;;;33.82;35.20;99938.94;5087844;28;19938;-41
2023/06/22 06:26:59;;;;;;;;;;;;;;;34.18;34.12;99937.88;5087551;28;19995;-41
2023/06/22 06:29:24;;;;;;;;;;;;;;;34.36;33.72;99943.78;5087547;28;19955;-42
2023/06/22 06:31:50;;;;;;;;;;;;;;;34.61;33.74;99938.03;5091062;28;19971;-43
2023/06/22 06:34:15;;;;;;;;;;;;;;;34.38;33.96;99933.19;5092338;28;19973;-42
2023/06/22 06:36:40;;;;;;;;;;;;;;;34.74;32.89;99935.97;5092408;28;19916;-41
2023/06/22 06:39:06;;;;;;;;;;;;;;;35.12;32.52;99943.47;5091949;28;20386;-41
2023/06/22 06:41:31;;;;;;;;;;;;;;;34.94;32.31;99936.75;5092204;28;19920;-41
2023/06/22 06:43:57;;;;;;;;;;;;;;;34.79;32.99;99936.47;5091925;28;19912;-42
2023/06/22 06:46:22;;;;;;;;;;;;;;;35.26;32.93;99945.72;5092215;28;19912;-41
2023/06/22 06:48:47;;;;;;;;;;;;;;;35.32;31.98;99949.00;5093245;28;19960;-41
2023/06/22 06:51:13;;;;;;;;;;;;;;;35.02;31.49;99942.09;5092917;28;20319;-41
2023/06/22 06:53:38;;;;;;;;;;;;;;;35.03;32.14;99938.16;5092599;28;20000;-41
2023/06/22 06:56:05;;;;;;;;;;;;;;;34.95;31.58;99932.84;5092942;28;19916;-42
2023/06/22 06:58:30;;;;;;;;;;;;;;;34.92;31.88;99939.91;5092910;28;19919;-42
2023/06/22 07:00:55;;;;;;;;;;;;;;;35.59;31.11;99933.31;5092623;28;19912;-43
2023/06/22 07:03:21;;;;;;;;;;;;;;;35.82;30.85;99931.34;5092170;28;19912;-42
2023/06/22 07:05:46;;;;;;;;;;;;;;;36.14;30.98;99931.06;5090700;28;19981;-41
2023/06/22 07:08:11;;;;;;;;;;;;;;;36.48;30.34;99925.66;5090447;28;19963;-41
2023/06/22 07:10:36;;;;;;;;;;;;;;;35.79;30.41;99932.09;5089948;28;19934;-44
2023/06/22 07:13:02;;;;;;;;;;;;;;;36.01;30.72;99929.69;5088884;28;19923;-41
2023/06/22 07:15:27;;;;;;;;;;;;;;;36.29;30.36;99917.47;5089357;28;19916;-41
2023/06/22 07:17:52;;;;;;;;;;;;;;;36.77;29.24;99926.84;5090419;28;19924;-43
2023/06/22 07:20:19;;;;;;;;;;;;;;;36.77;29.19;99926.06;5088458;28;20501;-42
2023/06/22 07:22:44;;;;;;;;;;;;;;;36.26;30.23;99927.31;5090910;28;19958;-42
2023/06/22 07:25:13;;;;;;;;;;;;;;;35.81;30.42;99932.53;5090857;28;19912;-42
2023/06/22 07:27:42;;;;;;;;;;;;;;;35.97;30.56;99935.16;5091447;28;20032;-41
2023/06/22 07:30:08;;;;;;;;;;;;;;;35.66;30.70;99936.19;5091247;28;20292;-41
2023/06/22 07:32:33;;;;;;;;;;;;;;;35.70;30.80;99939.84;5091189;28;19973;-41
2023/06/22 07:34:59;;;;;;;;;;;;;;;34.74;31.40;99942.28;5091425;28;19923;-39
2023/06/22 07:37:24;;;;;;;;;;;;;;;34.45;32.20;99940.84;5091542;28;19984;-41
2023/06/22 07:39:53;;;;;;;;;;;;;;;34.49;32.26;99941.72;5091460;28;19912;-40
2023/06/22 07:42:19;;;;;;;;;;;;;;;34.29;32.52;99932.59;5091167;28;20079;-41
2023/06/22 07:44:44;;;;;;;;;;;;;;;34.57;31.67;99934.38;5091105;28;19916;-41
2023/06/22 07:47:09;;;;;;;;;;;;;;;34.61;31.25;99938.03;5091152;28;19912;-41
2023/06/22 07:49:34;;;;;;;;;;;;;;;35.13;30.99;99941.47;5091012;28;20360;-42
2023/06/22 07:52:01;;;;;;;;;;;;;;;35.51;30.43;99934.31;5090924;28;20003;-42
2023/06/22 07:54:26;;;;;;;;;;;;;;;35.52;30.40;99925.66;5090943;28;19942;-42
2023/06/22 07:56:53;;;;;;;;;;;;;;;35.47;29.90;99933.47;5091523;28;19912;-42
2023/06/22 07:59:18;;;;;;;;;;;;;;;35.57;30.05;99925.38;5090991;28;19912;-41
2023/06/22 08:01:43;;;;;;;;;;;;;;;36.34;29.18;99919.91;5090699;28;19912;-41
2023/06/22 08:04:09;;;;;;;;;;;;;;;36.62;28.92;99925.06;5090143;28;19912;-41
2023/06/22 08:06:34;;;;;;;;;;;;;;;36.75;27.97;99928.41;5090554;28;19912;-41
2023/06/22 08:08:59;;;;;;;;;;;;;;;36.27;29.49;99925.34;5090376;28;19923;-42
2023/06/22 08:11:25;;;;;;;;;;;;;;;36.37;28.95;99922.75;5091207;28;19912;-42
2023/06/22 08:13:50;;;;;;;;;;;;;;;36.81;28.38;99935.22;5091532;28;19959;-42
2023/06/22 08:16:16;;;;;;;;;;;;;;;36.78;27.59;99908.25;5091943;28;19916;-42
2023/06/22 08:18:41;;;;;;;;;;;;;;;36.41;28.36;99911.72;5091444;28;20007;-41
2023/06/22 08:21:06;;;;;;;;;;;;;;;36.90;27.55;99912.75;5091434;28;19912;-42
2023/06/22 08:23:32;;;;;;;;;;;;;;;36.23;27.88;99916.97;5091128;28;20015;-42
2023/06/22 08:25:57;;;;;;;;;;;;;;;36.48;27.78;99909.03;5091270;28;19920;-42
2023/06/22 08:28:22;;;;;;;;;;;;;;;37.17;27.01;99910.72;5090830;28;20435;-42
2023/06/22 08:30:48;;;;;;;;;;;;;;;37.41;25.76;99900.25;5090671;28;19923;-41
2023/06/22 08:33:13;;;;;;;;;;;;;;;37.57;26.57;99903.56;5090149;28;20364;-41
2023/06/22 08:35:38;;;;;;;;;;;;;;;37.61;26.47;99906.41;5090793;28;19920;-41
2023/06/22 08:38:04;;;;;;;;;;;;;;;37.98;25.38;99899.94;5091529;28;19934;-42
2023/06/22 08:40:29;;;;;;;;;;;;;;;37.77;25.43;99890.28;5091516;28;19991;-42
2023/06/22 08:42:54;;;;;;;;;;;;;;;37.77;25.63;99890.28;5091193;28;20398;-41
2023/06/22 08:45:20;;;;;;;;;;;;;;;37.83;25.33;99890.72;5091218;28;20064;-42
2023/06/22 08:47:45;;;;;;;;;;;;;;;38.22;25.00;99884.66;5091323;28;20376;-42
2023/06/22 08:50:11;;;;;;;;;;;;;;;38.07;25.19;99887.34;5090979;28;19923;-41
2023/06/22 08:52:37;;;;;;;;;;;;;;;37.97;25.22;99879.72;5090192;28;19947;-42
2023/06/22 08:55:03;;;;;;;;;;;;;;;38.25;24.46;99886.66;5090699;28;19916;-42
2023/06/22 08:57:28;;;;;;;;;;;;;;;38.11;25.25;99884.59;5090784;28;19912;-42
2023/06/22 08:59:58;;;;;;;;;;;;;;;38.41;24.70;99889.94;5091242;28;19973;-43
2023/06/22 09:02:23;;;;;;;;;;;;;;;38.39;24.58;99894.28;5090431;28;19943;-42
2023/06/22 09:04:55;;;;;;;;;;;;;;;38.29;24.98;99885.50;5090569;28;20380;-41
2023/06/22 09:07:23;;;;;;;;;;;;;;;37.92;25.74;99886.41;5090149;28;19912;-42
2023/06/22 09:09:48;;;;;;;;;;;;;;;38.23;24.87;99891.81;5090309;28;20380;-42
2023/06/22 09:12:14;;;;;;;;;;;;;;;38.11;24.96;99879.03;5090122;28;19916;-42
2023/06/22 09:14:39;;;;;;;;;;;;;;;38.13;24.83;99883.00;5090494;28;19965;-42
2023/06/22 09:17:04;;;;;;;;;;;;;;;38.37;23.93;99880.78;5090873;28;19912;-41
2023/06/22 09:19:30;;;;;;;;;;;;;;;38.46;23.38;99880.41;5089120;28;20431;-42
2023/06/22 09:21:55;;;;;;;;;;;;;;;38.38;23.42;99887.91;5090124;28;20359;-42
2023/06/22 09:24:20;;;;;;;;;;;;;;;38.52;23.22;99890.00;5090282;28;19912;-42
2023/06/22 09:26:45;;;;;;;;;;;;;;;38.81;22.22;99876.22;5089998;28;20376;-41
2023/06/22 09:29:11;;;;;;;;;;;;;;;38.47;22.58;99880.03;5090084;28;19912;-42
2023/06/22 09:31:36;;;;;;;;;;;;;;;38.72;22.03;99868.25;5089676;28;20229;-42
2023/06/22 09:34:02;;;;;;;;;;;;;;;38.39;22.01;99863.72;5090171;28;20319;-41
2023/06/22 09:36:27;;;;;;;;;;;;;;;38.34;22.04;99870.44;5089709;28;20277;-42
2023/06/22 09:38:55;;;;;;;;;;;;;;;37.79;22.89;99871.25;5089778;28;19991;-43
2023/06/22 09:41:21;;;;;;;;;;;;;;;37.22;23.87;99862.41;5089836;28;20372;-42
2023/06/22 09:43:48;;;;;;;;;;;;;;;37.14;24.23;99856.78;5089826;28;19912;-41
2023/06/22 09:46:14;;;;;;;;;;;;;;;37.31;23.89;99863.69;5089474;28;20257;-43
2023/06/22 09:48:39;;;;;;;;;;;;;;;37.49;24.16;99863.03;5089249;28;19912;-42
2023/06/22 09:51:05;;;;;;;;;;;;;;;37.53;24.30;99867.47;5089821;28;19920;-40
2023/06/22 09:53:30;;;;;;;;;;;;;;;37.77;24.43;99861.72;5089933;28;20360;-42
2023/06/22 09:55:57;;;;;;;;;;;;;;;37.90;23.83;99866.56;5089332;28;19930;-42
2023/06/22 09:58:22;;;;;;;;;;;;;;;38.27;23.53;99859.28;5089640;28;20016;-42
2023/06/22 10:00:47;;;;;;;;;;;;;;;38.10;23.62;99860.78;5089590;28;19959;-42
2023/06/22 10:03:13;;;;;;;;;;;;;;;38.11;23.62;99851.25;5089526;28;20288;-43
2023/06/22 10:05:38;;;;;;;;;;;;;;;37.62;23.39;99852.47;5088380;28;19987;-42
2023/06/22 10:08:03;;;;;;;;;;;;;;;37.85;23.94;99855.03;5089339;28;19916;-42
2023/06/22 10:10:28;;;;;;;;;;;;;;;37.85;23.77;99846.69;5088626;28;20359;-42
2023/06/22 10:12:55;;;;;;;;;;;;;;;37.66;24.71;99847.75;5088691;28;19912;-41
2023/06/22 10:15:21;;;;;;;;;;;;;;;37.88;24.13;99845.94;5089326;28;19973;-42
2023/06/22 10:17:46;;;;;;;;;;;;;;;38.06;23.33;99846.03;5089504;28;20337;-43
2023/06/22 10:20:12;;;;;;;;;;;;;;;38.28;23.54;99849.78;5089449;28;20108;-42
2023/06/22 10:22:41;;;;;;;;;;;;;;;38.23;23.59;99850.13;5089561;28;19916;-42
2023/06/22 10:25:06;;;;;;;;;;;;;;;38.40;23.63;99845.84;5089472;28;19912;-43
2023/06/22 10:27:32;;;;;;;;;;;;;;;38.17;23.19;99844.16;5088903;28;19999;-42
2023/06/22 10:29:57;;;;;;;;;;;;;;;38.25;22.98;99837.47;5088416;28;19954;-42
2023/06/22 10:32:22;;;;;;;;;;;;;;;38.17;22.82;99838.59;5088506;28;19974;-42
2023/06/22 10:34:48;;;;;;;;;;;;;;;37.56;23.13;99836.16;5088713;28;19916;-43
2023/06/22 10:37:13;;;;;;;;;;;;;;;38.24;22.57;99829.50;5088639;28;19927;-43
2023/06/22 10:39:38;;;;;;;;;;;;;;;38.14;22.10;99820.72;5089269;28;19997;-42
2023/06/22 10:42:03;;;;;;;;;;;;;;;38.20;23.05;99815.59;5089055;28;20303;-42
2023/06/22 10:44:29;;;;;;;;;;;;;;;37.96;22.43;99808.69;5089000;28;20002;-42
2023/06/22 10:46:54;;;;;;;;;;;;;;;38.21;22.07;99806.06;5089048;28;20005;-42
2023/06/22 10:49:20;;;;;;;;;;;;;;;38.18;22.58;99801.31;5089229;28;20002;-42
2023/06/22 10:51:46;;;;;;;;;;;;;;;38.08;23.12;99802.84;5089208;28;20364;-42
2023/06/22 10:54:13;;;;;;;;;;;;;;;37.88;24.37;99804.28;5089012;28;19911;-42
2023/06/22 10:56:38;;;;;;;;;;;;;;;38.33;23.56;99799.41;5085856;28;20061;-42
2023/06/22 10:59:04;;;;;;;;;;;;;;;38.62;22.88;99799.53;5089541;28;20011;-42
2023/06/22 11:01:31;;;;;;;;;;;;;;;38.72;22.73;99801.53;5089960;28;20442;-42
2023/06/22 11:03:56;;;;;;;;;;;;;;;38.90;22.26;99796.00;5089359;28;19951;-42
2023/06/22 11:06:21;;;;;;;;;;;;;;;38.73;21.94;99803.13;5089493;28;20020;-42
2023/06/22 11:08:47;;;;;;;;;;;;;;;38.50;22.02;99804.22;5089814;28;19912;-42
2023/06/22 11:11:12;;;;;;;;;;;;;;;38.12;23.12;99792.56;5089394;28;19923;-42
2023/06/22 11:13:37;;;;;;;;;;;;;;;38.07;23.35;99792.91;5088706;28;19968;-42
2023/06/22 11:16:03;;;;;;;;;;;;;;;38.25;21.68;99793.00;5090038;28;20418;-42
2023/06/22 11:18:28;;;;;;;;;;;;;;;38.36;22.15;99792.25;5093193;28;19919;-40
2023/06/22 11:20:53;;;;;;;;;;;;;;;38.59;21.90;99791.94;5093250;28;19977;-42
2023/06/22 11:23:19;;;;;;;;;;;;;;;38.13;22.29;99793.34;5093278;28;19912;-42
2023/06/22 11:25:44;;;;;;;;;;;;;;;37.91;22.51;99790.44;5093266;28;19916;-42
2023/06/22 11:28:09;;;;;;;;;;;;;;;37.68;22.47;99796.25;5092683;28;19916;-42
2023/06/22 11:30:35;;;;;;;;;;;;;;;36.71;23.69;99791.75;5092762;28;19924;-45
2023/06/22 11:33:00;;;;;;;;;;;;;;;36.07;24.58;99784.22;5092744;28;19924;-44
2023/06/22 11:35:26;;;;;;;;;;;;;;;36.57;24.01;99784.84;5092971;28;19916;-41
2023/06/22 11:37:51;;;;;;;;;;;;;;;37.13;23.55;99782.28;5092977;28;20330;-42
2023/06/22 11:40:17;;;;;;;;;;;;;;;37.59;23.26;99784.66;5093005;28;19912;-41
2023/06/22 11:42:43;;;;;;;;;;;;;;;37.89;22.99;99790.03;5092716;28;19949;-42
2023/06/22 11:45:08;;;;;;;;;;;;;;;38.11;22.28;99788.16;5091865;28;19916;-42
2023/06/22 11:47:33;;;;;;;;;;;;;;;38.03;22.36;99785.72;5092811;28;19912;-41
2023/06/22 11:49:59;;;;;;;;;;;;;;;37.84;22.76;99787.59;5092791;28;20399;-43
2023/06/22 11:52:24;;;;;;;;;;;;;;;38.14;22.66;99781.84;5092921;28;20007;-43
2023/06/22 11:54:49;;;;;;;;;;;;;;;38.48;22.44;99787.13;5092734;28;20407;-43
2023/06/22 11:57:14;;;;;;;;;;;;;;;38.44;22.36;99780.78;5092816;28;20007;-42
2023/06/22 11:59:40;;;;;;;;;;;;;;;38.29;22.47;99785.47;5093537;28;20007;-42
2023/06/22 12:02:07;;;;;;;;;;;;;;;39.02;22.73;99778.97;5087758;28;20376;-43
2023/06/22 12:04:33;;;;;;;;;;;;;;;39.38;22.16;99786.53;5091030;28;19970;-43
2023/06/22 12:06:58;;;;;;;;;;;;;;;39.48;21.36;99786.53;5092718;28;20550;-42
2023/06/22 12:09:23;;;;;;;;;;;;;;;39.45;23.04;99778.19;5091980;28;19912;-42
2023/06/22 12:11:49;;;;;;;;;;;;;;;38.75;23.77;99775.72;5092274;28;19961;-42
2023/06/22 12:14:14;;;;;;;;;;;;;;;37.69;24.61;99772.03;5092776;28;19916;-42
2023/06/22 12:16:39;;;;;;;;;;;;;;;37.83;24.31;99771.31;5092595;28;19924;-41
2023/06/22 12:19:04;;;;;;;;;;;;;;;37.94;24.05;99764.66;5092785;28;20384;-43
2023/06/22 12:21:30;;;;;;;;;;;;;;;38.18;23.37;99767.97;5092616;28;19951;-42
2023/06/22 12:23:55;;;;;;;;;;;;;;;38.15;23.59;99763.19;5092379;28;20296;-42
2023/06/22 12:26:21;;;;;;;;;;;;;;;37.67;24.27;99769.66;5092065;28;19912;-41
2023/06/22 12:28:47;;;;;;;;;;;;;;;37.08;24.24;99746.56;5091470;28;20039;-42
2023/06/22 12:31:12;;;;;;;;;;;;;;;37.00;24.17;99753.25;5090610;28;19927;-43
2023/06/22 12:33:37;;;;;;;;;;;;;;;36.83;24.50;99752.69;5091446;28;19928;-42
2023/06/22 12:36:04;;;;;;;;;;;;;;;37.12;24.33;99747.41;5091841;28;19916;-42
2023/06/22 12:38:30;;;;;;;;;;;;;;;37.49;25.08;99738.19;5091800;28;19916;-42
2023/06/22 12:40:55;;;;;;;;;;;;;;;37.45;23.56;99743.72;5100428;28;20015;-42